Time;durP1;ratioP1;P1;durP2;ratioP2;P2;SDS_P1;SDS_P2;PMS_P1;PMS_P2;Temp;Humidity;BMP_temperature;BMP_pressure;BME280_temperature;BME280_humidity;BME280_pressure;Samples;Min_cycle;Max_cycle;Signal;HPM_P1;HPM_P2
2021/05/20 00:02:36;;;;;;;1.60;1.50;;;;;;;2.52;100.00;100237.94;5034378;28;20059;-57
2021/05/20 00:05:39;;;;;;;1.00;1.00;;;;;;;2.49;100.00;100233.28;5034174;28;20039;-57
2021/05/20 00:08:43;;;;;;;1.20;1.15;;;;;;;2.43;100.00;100226.66;5033792;28;20043;-57
2021/05/20 00:11:46;;;;;;;1.38;1.38;;;;;;;2.40;100.00;100228.28;5034617;28;20480;-57
2021/05/20 00:14:50;;;;;;;1.75;1.65;;;;;;;2.36;100.00;100221.28;5037079;28;20862;-57
2021/05/20 00:17:54;;;;;;;1.23;1.23;;;;;;;2.33;100.00;100222.88;5028211;28;20040;-57
2021/05/20 00:20:58;;;;;;;1.52;1.42;;;;;;;2.29;100.00;100222.13;5028078;28;20047;-57
2021/05/20 00:24:02;;;;;;;1.23;1.23;;;;;;;2.26;100.00;100229.22;5041052;28;20067;-57
2021/05/20 00:27:06;;;;;;;1.20;1.20;;;;;;;2.23;100.00;100224.53;5039694;28;20044;-55
2021/05/20 00:30:10;;;;;;;3.33;2.22;;;;;;;2.20;100.00;100214.41;5039850;28;20039;-57
2021/05/20 00:33:14;;;;;;;1.55;1.45;;;;;;;2.18;100.00;100215.97;5039296;28;20320;-56
2021/05/20 00:36:18;;;;;;;2.83;1.98;;;;;;;2.12;100.00;100223.88;5039304;28;20283;-56
2021/05/20 00:39:21;;;;;;;0.85;0.85;;;;;;;2.07;100.00;100218.06;5025887;28;20044;-56
2021/05/20 00:42:25;;;;;;;1.30;1.30;;;;;;;2.04;100.00;100218.88;5018953;28;20504;-56
2021/05/20 00:45:29;;;;;;;0.93;0.93;;;;;;;2.00;100.00;100215.41;5018488;28;20728;-57
2021/05/20 00:48:33;;;;;;;1.65;1.65;;;;;;;1.98;100.00;100213.06;5017568;28;20036;-57
2021/05/20 00:51:40;;;;;;;1.35;1.35;;;;;;;1.96;100.00;100226.44;5017857;28;20656;-57
2021/05/20 00:54:48;;;;;;;1.60;1.48;;;;;;;1.93;100.00;100213.50;5018619;28;20515;-57
2021/05/20 00:57:52;;;;;;;1.55;1.38;;;;;;;1.91;100.00;100218.63;5020024;28;20044;-57
2021/05/20 01:00:56;;;;;;;0.90;0.90;;;;;;;1.88;100.00;100218.66;5020703;28;20064;-57
2021/05/20 01:04:00;;;;;;;1.33;1.33;;;;;;;1.88;100.00;100219.47;5022524;28;20607;-56
2021/05/20 01:07:04;;;;;;;1.15;1.05;;;;;;;1.83;100.00;100210.88;5023523;28;20068;-57
2021/05/20 01:10:09;;;;;;;1.77;1.77;;;;;;;1.82;100.00;100209.31;5021971;28;20051;-57
2021/05/20 01:13:13;;;;;;;4.32;1.50;;;;;;;1.80;100.00;100200.72;5020312;28;20039;-57
2021/05/20 01:16:16;;;;;;;1.10;1.10;;;;;;;1.80;100.00;100200.72;5019638;28;20048;-57
2021/05/20 01:19:20;;;;;;;1.23;1.23;;;;;;;1.78;100.00;100200.31;5019849;28;20401;-57
2021/05/20 01:22:24;;;;;;;1.20;1.20;;;;;;;1.74;100.00;100203.09;5021039;28;20036;-57
2021/05/20 01:25:28;;;;;;;1.25;1.25;;;;;;;1.71;100.00;100198.44;5019808;28;20040;-57
2021/05/20 01:28:33;;;;;;;2.55;1.45;;;;;;;1.70;100.00;100205.13;5021094;28;20036;-57
2021/05/20 01:31:37;;;;;;;1.17;1.17;;;;;;;1.66;100.00;100200.84;5020426;28;20499;-57
2021/05/20 01:34:40;;;;;;;1.50;1.50;;;;;;;1.66;100.00;100200.84;5019348;28;20414;-57
2021/05/20 01:37:44;;;;;;;1.42;1.42;;;;;;;1.65;100.00;100189.06;5008110;28;20055;-57
2021/05/20 01:40:58;;;;;;;1.20;1.20;;;;;;;1.58;100.00;100185.63;5007249;28;20044;-57
2021/05/20 01:44:03;;;;;;;1.05;1.05;;;;;;;1.53;100.00;100184.91;5021047;28;20393;-57
2021/05/20 01:47:06;;;;;;;1.30;1.30;;;;;;;1.51;100.00;100181.78;5019685;28;20393;-56
2021/05/20 01:50:10;;;;;;;1.27;1.27;;;;;;;1.49;100.00;100186.88;5018844;28;20375;-57
2021/05/20 01:53:13;;;;;;;1.10;1.10;;;;;;;1.47;100.00;100183.00;5018844;28;20048;-57
2021/05/20 01:56:19;;;;;;;2.30;1.70;;;;;;;1.47;100.00;100178.25;5007617;28;20043;-57
2021/05/20 01:59:23;;;;;;;1.38;1.38;;;;;;;1.46;100.00;100181.41;5018883;28;20559;-57
2021/05/20 02:02:26;;;;;;;2.08;1.33;;;;;;;1.47;100.00;100177.50;5006891;28;20044;-57
2021/05/20 02:05:29;;;;;;;1.95;1.38;;;;;;;1.46;100.00;100170.44;5018299;28;20390;-57
2021/05/20 02:08:34;;;;;;;0.80;0.80;;;;;;;1.43;100.00;100155.56;5018324;28;20314;-57
2021/05/20 02:11:38;;;;;;;0.80;0.80;;;;;;;1.38;100.00;100158.78;5017862;28;20044;-57
2021/05/20 02:14:42;;;;;;;2.72;1.52;;;;;;;1.37;100.00;100151.72;5017713;28;20060;-57
2021/05/20 02:17:45;;;;;;;1.23;1.05;;;;;;;1.36;100.00;100143.91;5018637;28;20060;-57
2021/05/20 02:20:48;;;;;;;1.13;1.13;;;;;;;1.36;100.00;100143.91;5018543;28;20060;-56
2021/05/20 02:23:52;;;;;;;1.60;1.60;;;;;;;1.36;100.00;100133.72;5018171;28;20291;-56
2021/05/20 02:26:55;;;;;;;2.08;1.80;;;;;;;1.35;100.00;100134.88;5018493;28;20512;-57
2021/05/20 02:29:58;;;;;;;2.38;1.95;;;;;;;1.35;100.00;100132.13;5020746;28;20040;-57
2021/05/20 02:33:02;;;;;;;1.65;1.55;;;;;;;1.36;100.00;100122.72;5020472;28;20036;-57
2021/05/20 02:36:06;;;;;;;1.55;1.52;;;;;;;1.36;100.00;100114.50;5020136;28;20296;-57
2021/05/20 02:39:10;;;;;;;1.98;1.83;;;;;;;1.33;100.00;100112.56;5021379;28;20516;-57
2021/05/20 02:42:14;;;;;;;1.02;1.02;;;;;;;1.34;100.00;100107.88;5019574;28;20431;-57
2021/05/20 02:45:21;;;;;;;1.30;1.30;;;;;;;1.33;100.00;100101.59;5019197;28;20400;-57
2021/05/20 02:48:24;;;;;;;2.75;1.48;;;;;;;1.33;100.00;100101.59;5018312;28;20056;-57
2021/05/20 02:51:28;;;;;;;1.73;1.73;;;;;;;1.36;100.00;100091.78;5017137;28;20040;-57
2021/05/20 02:54:31;;;;;;;4.57;1.13;;;;;;;1.38;100.00;100087.44;5014085;28;20400;-57
2021/05/20 02:57:35;;;;;;;1.20;1.20;;;;;;;1.42;100.00;100093.66;5013850;28;20345;-57
2021/05/20 03:00:38;;;;;;;1.50;1.50;;;;;;;1.47;100.00;100089.69;5014505;28;20412;-57
2021/05/20 03:03:42;;;;;;;2.67;1.42;;;;;;;1.50;100.00;100089.66;5013379;28;20531;-57
2021/05/20 03:06:46;;;;;;;1.42;1.38;;;;;;;1.56;100.00;100091.97;5015102;28;20407;-57
2021/05/20 03:09:49;;;;;;;2.20;1.75;;;;;;;1.59;100.00;100078.19;5013506;28;20040;-57
2021/05/20 03:12:54;;;;;;;2.72;2.20;;;;;;;1.60;100.00;100078.97;5014122;28;20044;-57
2021/05/20 03:15:57;;;;;;;1.80;1.70;;;;;;;1.61;100.00;100069.53;5014027;28;20048;-57
2021/05/20 03:19:01;;;;;;;1.27;1.27;;;;;;;1.65;100.00;100067.53;5016027;28;20291;-57
2021/05/20 03:22:06;;;;;;;1.67;1.67;;;;;;;1.68;100.00;100055.72;5016248;28;20540;-57
2021/05/20 03:25:11;;;;;;;1.08;1.08;;;;;;;1.72;100.00;100056.47;5018206;28;20048;-57
2021/05/20 03:28:14;;;;;;;1.30;1.30;;;;;;;1.79;100.00;100051.69;5019550;28;20036;-56
2021/05/20 03:31:18;;;;;;;1.75;1.65;;;;;;;1.85;100.00;100054.72;5016608;28;20040;-57
2021/05/20 03:34:22;;;;;;;1.40;1.40;;;;;;;1.85;100.00;100043.75;5015842;28;20040;-57
2021/05/20 03:37:25;;;;;;;1.20;1.20;;;;;;;1.86;100.00;100023.34;5015732;28;20053;-57
2021/05/20 03:40:28;;;;;;;6.07;2.10;;;;;;;1.86;100.00;100024.13;5015088;28;20040;-57
2021/05/20 03:43:33;;;;;;;1.15;1.15;;;;;;;1.87;100.00;100017.44;5015750;28;20504;-57
2021/05/20 03:46:36;;;;;;;1.10;1.10;;;;;;;1.92;100.00;100016.22;5015227;28;20618;-57
2021/05/20 03:49:40;;;;;;;1.35;1.35;;;;;;;1.94;100.00;100020.09;5048532;28;20063;-57
2021/05/20 03:52:43;;;;;;;1.48;1.48;;;;;;;1.99;100.00;100016.13;5054440;28;20044;-57
2021/05/20 03:55:48;;;;;;;1.02;1.02;;;;;;;2.03;100.00;100006.63;5055545;28;20052;-57
2021/05/20 03:58:51;;;;;;;3.25;1.75;;;;;;;2.06;100.00;100005.00;5055630;28;20536;-56
2021/05/20 04:01:55;;;;;;;1.15;1.15;;;;;;;2.06;100.00;100005.00;5055524;28;20048;-57
2021/05/20 04:04:58;;;;;;;1.90;1.80;;;;;;;2.08;100.00;99991.66;5055757;28;20048;-57
2021/05/20 04:08:02;;;;;;;1.13;1.13;;;;;;;2.09;100.00;99994.00;5055456;28;20524;-57
2021/05/20 04:11:06;;;;;;;1.10;1.10;;;;;;;2.10;100.00;99992.78;5055477;28;20059;-57
2021/05/20 04:14:09;;;;;;;1.13;1.13;;;;;;;2.15;100.00;99994.28;5055360;28;20051;-57
2021/05/20 04:17:13;;;;;;;1.35;1.35;;;;;;;2.20;100.00;99993.81;5055111;28;20064;-57
2021/05/20 04:20:17;;;;;;;2.88;1.98;;;;;;;2.27;100.00;99993.72;5055403;28;20040;-56
2021/05/20 04:23:21;;;;;;;1.95;1.58;;;;;;;2.32;100.00;99985.00;5055079;28;20060;-57
2021/05/20 04:26:24;;;;;;;1.00;1.00;;;;;;;2.40;100.00;99975.47;5054945;28;20052;-57
2021/05/20 04:29:28;;;;;;;3.58;2.33;;;;;;;2.45;100.00;99974.22;5042943;28;20048;-57
2021/05/20 04:32:31;;;;;;;4.40;1.40;;;;;;;2.49;100.00;99967.44;5055308;28;20047;-56
2021/05/20 04:35:35;;;;;;;2.72;1.50;;;;;;;2.56;100.00;99961.81;5042858;28;20060;-57
2021/05/20 04:38:40;;;;;;;1.23;1.10;;;;;;;2.61;100.00;99953.13;5055272;28;20052;-57
2021/05/20 04:41:43;;;;;;;2.75;1.80;;;;;;;2.69;100.00;99948.25;5054590;28;20039;-57
2021/05/20 04:44:49;;;;;;;2.00;1.08;;;;;;;2.76;100.00;99946.16;5041777;28;20060;-57
2021/05/20 04:47:53;;;;;;;1.13;1.13;;;;;;;2.83;100.00;99937.78;5053990;28;20496;-57
2021/05/20 04:50:58;;;;;;;1.35;1.35;;;;;;;2.92;100.00;99932.50;5054847;28;20058;-57
2021/05/20 04:54:02;;;;;;;1.42;1.33;;;;;;;3.03;100.00;99935.81;5054975;28;20055;-57
2021/05/20 04:57:06;;;;;;;2.22;2.03;;;;;;;3.12;100.00;99924.25;5054535;28;20044;-56
2021/05/20 05:00:12;;;;;;;1.20;1.20;;;;;;;3.20;100.00;99922.94;5053917;28;20056;-57
2021/05/20 05:03:16;;;;;;;2.28;1.92;;;;;;;3.31;100.00;99922.72;5054664;28;20515;-57
2021/05/20 05:06:19;;;;;;;2.60;1.38;;;;;;;3.43;100.00;99919.28;5054463;28;20052;-57
2021/05/20 05:09:22;;;;;;;0.90;0.90;;;;;;;3.53;100.00;99921.06;5054308;28;20508;-57
2021/05/20 05:12:26;;;;;;;0.90;0.90;;;;;;;3.64;100.00;99924.34;5041907;28;20060;-57
2021/05/20 05:15:29;;;;;;;1.13;1.13;;;;;;;3.79;100.00;99917.31;5053078;28;20048;-57
2021/05/20 05:18:32;;;;;;;1.30;1.20;;;;;;;3.91;100.00;99894.63;5053905;28;20044;-57
2021/05/20 05:21:36;;;;;;;1.33;1.20;;;;;;;4.14;100.00;99897.19;5054064;28;20048;-57
2021/05/20 05:24:41;;;;;;;1.10;1.02;;;;;;;4.32;100.00;99897.53;5053731;28;20052;-57
2021/05/20 05:27:44;;;;;;;2.03;1.92;;;;;;;4.47;100.00;99895.19;5053775;28;20044;-57
2021/05/20 05:30:47;;;;;;;1.00;1.00;;;;;;;4.58;100.00;99885.44;5053745;28;20052;-57
2021/05/20 05:33:51;;;;;;;1.75;1.65;;;;;;;4.71;100.00;99879.97;5053715;28;20059;-57
2021/05/20 05:36:55;;;;;;;0.90;0.90;;;;;;;4.81;100.00;99873.38;5053872;28;20060;-57
2021/05/20 05:39:59;;;;;;;6.88;1.10;;;;;;;4.91;100.00;99855.00;5066412;28;20051;-57
2021/05/20 05:43:02;;;;;;;2.80;1.23;;;;;;;5.05;100.00;99854.59;5073107;28;20051;-57
2021/05/20 05:46:05;;;;;;;0.85;0.65;;;;;;;5.15;100.00;99859.03;5072897;28;20055;-57
2021/05/20 05:49:14;;;;;;;1.10;1.10;;;;;;;5.25;100.00;99846.91;5073076;28;20487;-57
2021/05/20 05:52:23;;;;;;;2.25;2.08;;;;;;;5.34;100.00;99844.28;5060744;28;20043;-57
2021/05/20 05:55:26;;;;;;;1.58;1.02;;;;;;;5.38;100.00;99839.41;5072766;28;20132;-57
2021/05/20 05:58:29;;;;;;;1.10;1.00;;;;;;;5.46;100.00;99828.94;5072375;28;20051;-57
2021/05/20 06:01:34;;;;;;;1.70;1.02;;;;;;;5.51;100.00;99823.63;5072522;28;20055;-57
2021/05/20 06:04:37;;;;;;;0.95;0.90;;;;;;;5.61;100.00;99822.50;5072880;28;20064;-57
2021/05/20 06:07:47;;;;;;;1.77;1.00;;;;;;;5.72;100.00;99817.41;5073203;28;20095;-57
2021/05/20 06:10:50;;;;;;;1.00;1.00;;;;;;;5.84;100.00;99816.69;5073218;28;20063;-57
2021/05/20 06:13:55;;;;;;;1.20;1.10;;;;;;;5.95;100.00;99803.28;5073046;28;20077;-57
2021/05/20 06:16:58;;;;;;;3.90;1.00;;;;;;;6.06;100.00;99792.63;5072941;28;20401;-57
2021/05/20 06:20:03;;;;;;;0.70;0.70;;;;;;;6.20;100.00;99798.88;5073138;28;20051;-57
2021/05/20 06:23:08;;;;;;;0.95;0.95;;;;;;;6.28;100.00;99789.16;5073173;28;20047;-57
2021/05/20 06:26:11;;;;;;;3.92;0.80;;;;;;;6.38;100.00;99790.75;5072852;28;20055;-57
2021/05/20 06:29:14;;;;;;;5.97;1.05;;;;;;;6.47;100.00;99774.25;5072809;28;20380;-57
2021/05/20 06:32:18;;;;;;;6.20;0.90;;;;;;;6.53;100.00;99778.75;5073097;28;20047;-57
2021/05/20 06:35:21;;;;;;;0.47;0.47;;;;;;;6.61;100.00;99768.19;5072683;28;20039;-57
2021/05/20 06:38:24;;;;;;;0.85;0.65;;;;;;;6.66;100.00;99751.00;5072414;28;20048;-57
2021/05/20 06:41:27;;;;;;;1.38;1.25;;;;;;;6.76;100.00;99747.84;5072232;28;20067;-57
2021/05/20 06:44:31;;;;;;;13.35;2.53;;;;;;;6.84;100.00;99731.75;5052031;28;20052;-57
2021/05/20 06:47:35;;;;;;;9.38;1.35;;;;;;;6.95;100.00;99726.59;5040110;28;20044;-57
2021/05/20 06:50:38;;;;;;;1.02;0.95;;;;;;;7.05;100.00;99722.63;5052464;28;20052;-57
2021/05/20 06:53:41;;;;;;;0.90;0.90;;;;;;;7.13;100.00;99704.50;5052207;28;20048;-57
2021/05/20 06:56:49;;;;;;;1.42;1.15;;;;;;;7.20;100.00;99704.22;5052394;28;20448;-57
2021/05/20 07:00:11;;;;;;;2.15;0.95;;;;;;;7.30;100.00;99694.72;5052335;28;20396;-57
2021/05/20 07:03:15;;;;;;;0.60;0.60;;;;;;;7.44;100.00;99696.94;5052316;28;20067;-57
2021/05/20 07:06:19;;;;;;;1.35;0.93;;;;;;;7.53;100.00;99694.19;5051929;28;20052;-57
2021/05/20 07:09:22;;;;;;;0.70;0.55;;;;;;;7.60;100.00;99688.31;5051605;28;20052;-57
2021/05/20 07:12:26;;;;;;;0.38;0.38;;;;;;;7.67;100.00;99680.97;5070189;28;20051;-57
2021/05/20 07:15:29;;;;;;;3.92;1.23;;;;;;;7.73;100.00;99677.13;5071601;28;20067;-57
2021/05/20 07:18:33;;;;;;;0.65;0.60;;;;;;;7.79;100.00;99666.97;5071642;28;20079;-57
2021/05/20 07:21:36;;;;;;;2.42;1.42;;;;;;;7.77;100.00;99668.66;5071712;28;20051;-57
2021/05/20 07:24:40;;;;;;;1.10;1.00;;;;;;;7.71;100.00;99664.94;5059130;28;20059;-57
2021/05/20 07:27:43;;;;;;;8.55;0.95;;;;;;;7.63;100.00;99659.69;5071964;28;20051;-57
2021/05/20 07:30:46;;;;;;;7.28;2.22;;;;;;;7.57;100.00;99646.91;5071804;28;20051;-57
2021/05/20 07:33:50;;;;;;;0.68;0.65;;;;;;;7.57;100.00;99639.38;5070800;28;20051;-57
2021/05/20 07:36:53;;;;;;;1.00;0.77;;;;;;;7.65;100.00;99632.28;5071001;28;20130;-58
2021/05/20 07:39:57;;;;;;;0.80;0.80;;;;;;;7.81;100.00;99630.44;5071341;28;20388;-57
2021/05/20 07:43:00;;;;;;;5.05;1.42;;;;;;;8.03;100.00;99619.97;5071025;28;20043;-57
2021/05/20 07:46:04;;;;;;;3.85;2.13;;;;;;;8.25;100.00;99601.91;5071748;28;20404;-57
2021/05/20 07:49:07;;;;;;;5.05;1.48;;;;;;;8.50;100.00;99598.00;5071837;28;20043;-57
2021/05/20 07:52:11;;;;;;;3.30;1.27;;;;;;;8.79;100.00;99603.00;5072043;28;20047;-58
2021/05/20 07:55:14;;;;;;;3.22;0.52;;;;;;;9.05;100.00;99577.06;5071417;28;20047;-58
2021/05/20 07:58:18;;;;;;;7.13;1.17;;;;;;;9.29;100.00;99563.19;5071267;28;20043;-58
2021/05/20 08:01:22;;;;;;;3.58;0.98;;;;;;;9.36;100.00;99570.41;5071189;28;20059;-57
2021/05/20 08:04:28;;;;;;;1.00;0.88;;;;;;;9.50;100.00;99551.00;5071267;28;20051;-57
2021/05/20 08:11:07;;;;;;;3.80;1.38;;;;;;;9.91;100.00;99513.09;5061354;28;20055;-57
2021/05/20 08:14:10;;;;;;;4.72;0.63;;;;;;;9.96;100.00;99504.09;5071819;28;20047;-57
2021/05/20 08:17:14;;;;;;;0.90;0.73;;;;;;;9.90;100.00;99494.84;5071378;28;20044;-57
2021/05/20 08:20:17;;;;;;;0.68;0.60;;;;;;;9.90;100.00;99483.72;5070911;28;20044;-57
2021/05/20 08:23:20;;;;;;;1.42;0.75;;;;;;;10.04;100.00;99477.41;5070396;28;20063;-57
2021/05/20 08:26:27;;;;;;;1.67;1.08;;;;;;;10.07;100.00;99470.84;5071029;28;20043;-58
2021/05/20 08:29:33;;;;;;;5.53;0.73;;;;;;;10.05;100.00;99456.66;5071021;28;20048;-58
2021/05/20 08:32:37;;;;;;;1.63;0.82;;;;;;;10.20;100.00;99440.75;5070930;28;20059;-57
2021/05/20 08:35:40;;;;;;;0.68;0.45;;;;;;;10.30;100.00;99427.50;5072691;28;20048;-58
2021/05/20 08:38:44;;;;;;;0.30;0.30;;;;;;;10.33;100.00;99418.94;5074787;28;20047;-57
2021/05/20 08:41:49;;;;;;;0.68;0.32;;;;;;;10.33;100.00;99416.16;5074894;28;20071;-57
2021/05/20 08:44:53;;;;;;;1.58;0.47;;;;;;;10.38;100.00;99406.34;5074641;28;20047;-57
2021/05/20 08:47:57;;;;;;;2.22;0.52;;;;;;;10.39;100.00;99396.75;5074728;28;20412;-57
2021/05/20 08:51:01;;;;;;;0.30;0.28;;;;;;;10.29;100.00;99382.19;5074610;28;20048;-57
2021/05/20 08:54:05;;;;;;;0.45;0.28;;;;;;;10.12;100.00;99367.28;5074609;28;20051;-57
2021/05/20 08:57:08;;;;;;;0.90;0.47;;;;;;;9.98;100.00;99373.63;5074417;28;20063;-58
2021/05/20 09:00:17;;;;;;;1.92;0.52;;;;;;;9.88;100.00;99374.97;5074712;28;20063;-58
2021/05/20 09:03:21;;;;;;;2.65;0.68;;;;;;;9.81;100.00;99353.16;5074561;28;20039;-57
2021/05/20 09:06:34;;;;;;;3.88;0.68;;;;;;;9.73;100.00;99352.00;5074309;28;20047;-57
2021/05/20 09:09:39;;;;;;;0.55;0.50;;;;;;;9.69;100.00;99326.41;5074260;28;20059;-58
2021/05/20 09:12:43;;;;;;;15.27;1.20;;;;;;;9.70;100.00;99319.59;5074399;28;20388;-58
2021/05/20 09:15:49;;;;;;;0.43;0.30;;;;;;;9.88;100.00;99311.00;5074115;28;20498;-58
2021/05/20 09:18:53;;;;;;;6.40;0.60;;;;;;;9.96;100.00;99314.94;5061853;28;20059;-58
2021/05/20 09:22:03;;;;;;;0.52;0.52;;;;;;;9.98;100.00;99306.88;5074500;28;20047;-58
2021/05/20 09:25:08;;;;;;;;;;;;;;;9.93;100.00;99288.09;5074278;28;20071;-58
2021/05/20 09:28:14;;;;;;;7.07;0.88;;;;;;;9.87;100.00;99287.25;5074003;28;19912;-58
2021/05/20 09:31:37;;;;;;;2.13;0.30;;;;;;;9.87;100.00;99271.31;5074259;28;20051;-58
2021/05/20 09:34:40;;;;;;;0.82;0.30;;;;;;;9.95;100.00;99254.97;5073786;28;20052;-58
2021/05/20 09:37:47;;;;;;;0.55;0.40;;;;;;;9.98;100.00;99256.81;5073652;28;20079;-58
2021/05/20 09:41:01;;;;;;;0.47;0.47;;;;;;;10.00;100.00;99254.31;5073619;28;20047;-58
2021/05/20 09:44:30;;;;;;;6.43;0.75;;;;;;;10.04;100.00;99249.28;5073758;28;20393;-58
2021/05/20 09:47:35;;;;;;;0.70;0.70;;;;;;;9.99;100.00;99230.50;5073710;28;20052;-58
2021/05/20 09:50:45;;;;;;;1.67;0.22;;;;;;;9.88;100.00;99233.13;5073568;28;20048;-59
2021/05/20 09:53:52;;;;;;;5.63;0.98;;;;;;;9.91;100.00;99229.41;5073824;28;20503;-58
2021/05/20 09:56:56;;;;;;;1.63;0.60;;;;;;;9.88;100.00;99213.66;5073585;28;20071;-58
2021/05/20 10:00:03;;;;;;;0.20;0.20;;;;;;;9.90;100.00;99219.50;5073606;28;20507;-59
2021/05/20 10:03:12;;;;;;;0.50;0.50;;;;;;;9.95;100.00;99213.25;5061465;28;20047;-58
2021/05/20 10:06:34;;;;;;;4.47;0.65;;;;;;;9.92;100.00;99191.97;5073347;28;20044;-58
2021/05/20 10:09:38;;;;;;;1.08;0.32;;;;;;;9.85;100.00;99170.16;5073266;28;20055;-61
2021/05/20 10:12:46;;;;;;;3.00;0.68;;;;;;;9.88;100.00;99163.59;5073232;28;20047;-61
2021/05/20 10:15:52;;;;;;;1.25;0.50;;;;;;;10.13;100.00;99156.59;5073387;28;20499;-61
2021/05/20 10:18:56;;;;;;;0.63;0.40;;;;;;;10.46;100.00;99157.69;5072768;28;20538;-61
2021/05/20 10:22:01;;;;;;;2.55;0.40;;;;;;;10.39;100.00;99163.72;5073088;28;20059;-61
2021/05/20 10:25:07;;;;;;;3.65;0.68;;;;;;;10.19;100.00;99169.31;5072840;28;20131;-62
2021/05/20 10:28:13;;;;;;;5.28;1.17;;;;;;;10.01;100.00;99172.38;5072899;28;20479;-62
2021/05/20 10:31:17;;;;;;;0.75;0.35;;;;;;;9.83;100.00;99172.66;5060787;28;20043;-61
2021/05/20 10:34:21;;;;;;;0.20;0.17;;;;;;;9.66;100.00;99166.09;5072570;28;20503;-61
2021/05/20 10:37:28;;;;;;;0.55;0.52;;;;;;;9.48;100.00;99146.94;5071624;28;20047;-61
2021/05/20 10:40:34;;;;;;;2.63;0.40;;;;;;;9.20;100.00;99148.56;5070302;28;20059;-63
2021/05/20 10:43:39;;;;;;;2.15;0.40;;;;;;;9.04;100.00;99144.28;5052715;28;20047;-65
2021/05/20 10:46:58;;;;;;;2.05;0.75;;;;;;;8.91;100.00;99136.28;5052422;28;20047;-65
2021/05/20 10:50:01;;;;;;;1.58;1.02;;;;;;;8.83;100.00;99139.94;5052467;28;20052;-64
2021/05/20 10:53:08;;;;;;;5.22;0.40;;;;;;;8.81;100.00;99123.75;5040536;28;20056;-62
2021/05/20 10:56:14;;;;;;;0.52;0.47;;;;;;;8.98;100.00;99099.00;5052197;28;20048;-60
2021/05/20 10:59:37;;;;;;;2.38;1.10;;;;;;;8.99;100.00;99090.19;5052003;28;20052;-60
2021/05/20 11:02:53;;;;;;;1.38;0.82;;;;;;;8.98;100.00;99104.56;5052240;28;20048;-59
2021/05/20 11:05:57;;;;;;;0.70;0.70;;;;;;;8.92;100.00;99112.78;5052605;28;20055;-60
2021/05/20 11:09:03;;;;;;;1.45;1.02;;;;;;;8.88;100.00;99115.00;5040125;28;20504;-59
2021/05/20 11:12:08;;;;;;;2.65;0.60;;;;;;;8.83;100.00;99087.19;5052273;28;20571;-58
2021/05/20 11:15:16;;;;;;;0.45;0.40;;;;;;;8.80;100.00;99055.59;5052135;28;20047;-58
2021/05/20 11:18:33;;;;;;;0.80;0.77;;;;;;;8.77;100.00;99050.25;5052126;28;20044;-58
2021/05/20 11:21:55;;;;;;;9.18;0.93;;;;;;;8.87;100.00;99012.78;5051874;28;20504;-58
2021/05/20 11:25:09;;;;;;;1.17;0.77;;;;;;;8.99;100.00;98976.34;5051914;28;20063;-60
2021/05/20 11:28:17;;;;;;;1.10;0.52;;;;;;;9.06;100.00;98973.16;5051906;28;20048;-59
2021/05/20 11:31:23;;;;;;;9.20;1.15;;;;;;;9.28;100.00;98944.09;5051829;28;20044;-59
2021/05/20 11:37:42;;;;;;;0.75;0.45;;;;;;;9.46;100.00;98949.34;5051862;28;20055;-60
2021/05/20 11:40:45;;;;;;;0.85;0.55;;;;;;;9.29;100.00;98945.63;5028603;28;20044;-60
2021/05/20 11:44:00;;;;;;;0.63;0.35;;;;;;;9.24;100.00;98946.31;5051968;28;20052;-59
2021/05/20 11:47:07;;;;;;;1.55;0.63;;;;;;;9.28;100.00;98942.09;5051955;28;20048;-60
2021/05/20 11:50:11;;;;;;;7.00;0.70;;;;;;;9.20;100.00;98926.34;5051787;28;20044;-60
2021/05/20 11:53:15;;;;;;;0.65;0.65;;;;;;;9.25;100.00;98918.03;5051098;28;20052;-60
2021/05/20 11:56:58;;;;;;;0.65;0.65;;;;;;;9.34;100.00;98897.69;5051231;28;20072;-60
2021/05/20 12:00:04;;;;;;;1.65;0.50;;;;;;;9.43;100.00;98878.84;5052338;28;20051;-60
2021/05/20 12:03:09;;;;;;;3.60;0.60;;;;;;;9.55;100.00;98874.16;5051756;28;20060;-60
2021/05/20 12:06:17;;;;;;;0.50;0.50;;;;;;;9.67;100.00;98864.63;5039475;28;20500;-60
2021/05/20 12:09:27;;;;;;;2.47;0.60;;;;;;;9.82;100.00;98838.22;5039674;28;20044;-60
2021/05/20 12:12:33;;;;;;;2.17;0.57;;;;;;;9.83;100.00;98819.53;5055595;28;20043;-59
2021/05/20 12:15:37;;;;;;;1.33;0.40;;;;;;;9.77;100.00;98811.13;5055261;28;20043;-60
2021/05/20 12:18:41;;;;;;;3.83;0.32;;;;;;;9.74;100.00;98803.03;5055733;28;20048;-61
2021/05/20 12:22:18;;;;;;;0.68;0.30;;;;;;;9.72;100.00;98786.81;5055838;28;20044;-61
2021/05/20 12:25:24;;;;;;;8.10;0.80;;;;;;;9.73;100.00;98779.25;5055927;28;20068;-61
2021/05/20 12:28:28;;;;;;;0.90;0.25;;;;;;;9.84;100.00;98779.31;5055809;28;20067;-60
2021/05/20 12:31:34;;;;;;;0.63;0.63;;;;;;;9.93;100.00;98763.22;5042936;28;20044;-59
2021/05/20 12:34:38;;;;;;;3.45;0.43;;;;;;;9.91;100.00;98746.25;5055538;28;20044;-60
2021/05/20 12:38:09;;;;;;;4.32;0.45;;;;;;;9.90;100.00;98735.63;5027297;28;20056;-60
2021/05/20 12:41:15;;;;;;;0.50;0.50;;;;;;;9.96;100.00;98725.31;5031522;28;20056;-59
2021/05/20 12:44:18;;;;;;;0.90;0.60;;;;;;;9.93;100.00;98704.03;5053100;28;20044;-59
2021/05/20 12:47:21;;;;;;;0.65;0.65;;;;;;;9.92;100.00;98696.94;5053125;28;20044;-59
2021/05/20 12:50:35;;;;;;;0.50;0.38;;;;;;;9.89;100.00;98695.19;5053369;28;20056;-60
2021/05/20 12:53:43;;;;;;;0.22;0.22;;;;;;;9.73;100.00;98685.50;5053117;28;20052;-59
2021/05/20 12:56:47;;;;;;;4.60;0.55;;;;;;;9.67;100.00;98686.72;5052908;28;20040;-60
2021/05/20 13:00:01;;;;;;;0.52;0.40;;;;;;;9.62;100.00;98676.31;5053574;28;20055;-61
2021/05/20 13:03:05;;;;;;;5.45;0.82;;;;;;;9.65;100.00;98655.88;5054820;28;20048;-59
2021/05/20 13:06:08;;;;;;;1.13;0.50;;;;;;;9.68;100.00;98652.13;5054396;28;20060;-60
2021/05/20 13:09:13;;;;;;;0.30;0.30;;;;;;;9.96;100.00;98624.41;5042006;28;20040;-60
2021/05/20 13:12:26;;;;;;;0.77;0.30;;;;;;;10.09;100.00;98635.84;5053715;28;20060;-60
2021/05/20 13:15:55;;;;;;;4.15;0.30;;;;;;;10.07;100.00;98635.56;5053785;28;20052;-60
2021/05/20 13:22:41;;;;;;;4.85;0.20;;;;;;;9.94;100.00;98608.97;5054172;28;20060;-60
2021/05/20 13:25:45;;;;;;;0.10;0.10;;;;;;;9.85;100.00;98608.47;5053017;28;20060;-62
2021/05/20 13:28:52;;;;;;;1.38;0.40;;;;;;;9.83;100.00;98599.88;4990528;28;20065;-80
2021/05/20 13:31:56;;;;;;;0.80;0.30;;;;;;;9.78;100.00;98592.25;5011418;28;20057;-80
2021/05/20 13:35:00;;;;;;;2.50;0.50;;;;;;;9.73;100.00;98585.41;5012534;28;20080;-84
2021/05/20 13:38:04;;;;;;;1.92;1.17;;;;;;;9.75;100.00;98577.31;5012066;28;20061;-80
2021/05/20 13:41:07;;;;;;;0.40;0.20;;;;;;;9.68;100.00;98566.69;5011404;28;20069;-81
2021/05/20 13:44:11;;;;;;;1.02;0.38;;;;;;;9.52;100.00;98564.63;4999801;28;20056;-82
2021/05/20 13:47:14;;;;;;;7.13;0.20;;;;;;;9.38;100.00;98542.56;4985979;28;20064;-81
2021/05/20 13:50:19;;;;;;;0.57;0.25;;;;;;;9.31;100.00;98526.41;4999740;28;20413;-82
2021/05/20 13:53:24;;;;;;;3.92;0.52;;;;;;;9.28;100.00;98522.59;5001365;28;20061;-82
2021/05/20 13:56:27;;;;;;;1.83;0.50;;;;;;;9.31;100.00;98516.06;5013465;28;20061;-85
2021/05/20 13:59:31;;;;;;;1.00;0.50;;;;;;;9.39;100.00;98507.97;4992766;28;20109;-83
2021/05/20 14:02:37;;;;;;;3.33;0.70;;;;;;;9.43;100.00;98497.38;5012021;28;20064;-84
2021/05/20 14:05:40;;;;;;;1.45;0.75;;;;;;;9.41;100.00;98497.91;5010836;28;20065;-83
2021/05/20 14:08:44;;;;;;;1.40;0.40;;;;;;;9.42;100.00;98499.41;4999592;28;20080;-83
2021/05/20 14:11:48;;;;;;;3.10;1.05;;;;;;;9.47;100.00;98470.09;5011567;28;20529;-83
2021/05/20 14:14:51;;;;;;;2.88;0.77;;;;;;;9.55;100.00;98471.16;4992833;28;20077;-87
2021/05/20 14:17:54;;;;;;;1.67;0.73;;;;;;;9.51;100.00;98462.28;5011298;28;20064;-83
2021/05/20 14:20:58;;;;;;;0.63;0.30;;;;;;;9.45;100.00;98464.31;5010274;28;20532;-82
2021/05/20 14:24:02;;;;;;;0.38;0.35;;;;;;;9.48;100.00;98457.75;5011472;28;20422;-80
2021/05/20 14:27:06;;;;;;;3.17;0.90;;;;;;;9.46;100.00;98449.16;5011980;28;20057;-80
2021/05/20 14:30:11;;;;;;;1.67;0.40;;;;;;;9.43;100.00;98447.38;4991874;28;20056;-80
2021/05/20 14:33:14;;;;;;;0.30;0.30;;;;;;;9.51;100.00;98434.50;5011155;28;20064;-83
2021/05/20 14:36:17;;;;;;;0.13;0.13;;;;;;;9.50;100.00;98421.88;5011587;28;20065;-83
2021/05/20 14:39:21;;;;;;;0.85;0.20;;;;;;;9.45;100.00;98415.06;4998533;28;20065;-82
2021/05/20 14:42:24;;;;;;;0.20;0.20;;;;;;;9.41;100.00;98394.31;5011448;28;20060;-81